LiveATC.Net - Listen to live air traffic control over the Internet!


ICAO: KSGR  IATA: SGR   Airport: Sugar Land Regional Airport
City: Houston   State/Province: Texas
Country: United States   Continent: North America
KSGR METAR Weather: KSGR 020353Z AUTO 11005KT 10SM CLR 18/13 A2998 RMK AO2 SLP152 T01830128
KSGR Flight Activity (FlightAware)
KSGR Airport Info   (iFlightPlanner)
KSGR VFR Sectional Chart   (iFlightPlanner) 
KSGR IFR Low Chart   (iFlightPlanner) 

KSGR Ground/Tower
Feed Status: UP   Listeners: 0
Listen in your browser - HTML5 player (in browser, HTML5)
Click here to listen with your own player (launches your MP3 player)
Archive Access: KSGR Ground/Tower
FacilityFrequency
Sugar Land Ground121.400
Sugar Land Tower/CTAF118.650

NOTICE

Unauthorized use prohibited. See LiveATC.net Terms of Service


Airport/ARTCC Code
Frequency Search
(e.g., 124.400, 128.75)
Site-wide search
 


Browse Feeds
Top 50 Feeds
Coverage Map
Bad Weather Areas

LiveATC FAQ
Offer LiveATC feed
Contact LiveATC.net
Press Inquiries

LiveATC on iPhone
LiveATC on Android

Windows Phone
Windows 8/10

LiveATC Mobile
(Mobile browser)

ATC Audio Archives
Interesting Recordings

LiveATC Forums


Home Page
About LiveATC.net
Make a Donation
Terms of Use
Privacy Policy

Canadian Air Freqs

AIRMETs/SIGMETs

FAA Airport Status
Nat'l Airspace Status
Arrival Demand Charts


Server Software By:
Icecast.org
Liquidsoap